ěÝzenÝ letovÚho provozu ╚eskÚ republiky
Letiste: LKTB Aktualizace: 10.05.2021 04:00:26  UTC
 METAR LKTB 10.05. 04:00 ...
METAR LKTB 100400Z 10010KT 080V140 CAVOK 12/01 Q1013 NOSIG RMK REG QNH 1007=
 TAF LKTB 09.05. 23:00 ...
TAF LKTB 092300Z 1000/1106 12010KT CAVOK      TEMPO 1000/1102 15018G28KT=